Qashlu, Yemen
Current Conditions -  °F | °C
As of 3:00 AM on Sunday 26 Oct 2014 (Local Time) from OYSQ Reporting Station
Scattered Clouds Scattered Clouds  
Wind Chill: 25°   Ceiling: Unl
Heat Index: 26°   Visibility: 6mi
Dew Point: 22°   Wind: 2mph
Humidity: 83%   Direction: NA
Pressure: 29.83"   Gusts: NA
Location:  12.61°N, 53.86°E
Report Text: OYSQ 260000Z VRB02KT 9999 SCT018 25/22 Q1010
Loading
Personal Weather Stations






























Interactive Weather Map
Tropical Storm Tracking
New forecast layout! Learn more

10-Day Weather Forecast

Advertisements
Track Severe Weather on mobile